sensor_id;sensor_type;location;lat;lon;timestamp;P1;durP1;ratioP1;P2;durP2;ratioP2
62584;SDS011;48643;51.670;5.808;2023-05-07T00:01:58;2.97;;;1.88;;
62584;SDS011;48643;51.670;5.808;2023-05-07T00:04:25;2.83;;;1.90;;
62584;SDS011;48643;51.670;5.808;2023-05-07T00:06:52;3.85;;;2.10;;
62584;SDS011;48643;51.670;5.808;2023-05-07T00:09:19;4.38;;;2.20;;
62584;SDS011;48643;51.670;5.808;2023-05-07T00:11:46;2.60;;;2.10;;
62584;SDS011;48643;51.670;5.808;2023-05-07T00:14:13;2.40;;;2.08;;
62584;SDS011;48643;51.670;5.808;2023-05-07T00:16:39;3.80;;;2.10;;
62584;SDS011;48643;51.670;5.808;2023-05-07T00:19:06;3.80;;;2.10;;
62584;SDS011;48643;51.670;5.808;2023-05-07T00:21:33;2.72;;;1.92;;
62584;SDS011;48643;51.670;5.808;2023-05-07T00:24:00;2.53;;;1.90;;
62584;SDS011;48643;51.670;5.808;2023-05-07T00:26:26;5.60;;;1.90;;
62584;SDS011;48643;51.670;5.808;2023-05-07T00:28:53;2.50;;;2.00;;
62584;SDS011;48643;51.670;5.808;2023-05-07T00:31:20;3.40;;;1.98;;
62584;SDS011;48643;51.670;5.808;2023-05-07T00:33:47;2.80;;;2.00;;
62584;SDS011;48643;51.670;5.808;2023-05-07T00:36:14;3.08;;;2.10;;
62584;SDS011;48643;51.670;5.808;2023-05-07T00:38:41;3.30;;;2.00;;
62584;SDS011;48643;51.670;5.808;2023-05-07T00:41:07;4.25;;;2.20;;
62584;SDS011;48643;51.670;5.808;2023-05-07T00:43:34;3.15;;;2.28;;
62584;SDS011;48643;51.670;5.808;2023-05-07T00:46:01;3.40;;;2.30;;
62584;SDS011;48643;51.670;5.808;2023-05-07T00:48:28;3.85;;;2.40;;
62584;SDS011;48643;51.670;5.808;2023-05-07T00:50:55;4.53;;;2.50;;
62584;SDS011;48643;51.670;5.808;2023-05-07T00:53:22;3.28;;;2.20;;
62584;SDS011;48643;51.670;5.808;2023-05-07T00:55:49;3.30;;;2.20;;
62584;SDS011;48643;51.670;5.808;2023-05-07T00:58:16;3.15;;;2.20;;
62584;SDS011;48643;51.670;5.808;2023-05-07T01:00:43;4.03;;;2.50;;
62584;SDS011;48643;51.670;5.808;2023-05-07T01:03:10;3.28;;;2.35;;
62584;SDS011;48643;51.670;5.808;2023-05-07T01:05:37;3.28;;;2.20;;
62584;SDS011;48643;51.670;5.808;2023-05-07T01:08:05;3.67;;;2.47;;
62584;SDS011;48643;51.670;5.808;2023-05-07T01:10:32;4.25;;;2.40;;
62584;SDS011;48643;51.670;5.808;2023-05-07T01:12:59;4.35;;;2.55;;
62584;SDS011;48643;51.670;5.808;2023-05-07T01:15:26;6.32;;;3.13;;
62584;SDS011;48643;51.670;5.808;2023-05-07T01:17:54;4.32;;;2.55;;
62584;SDS011;48643;51.670;5.808;2023-05-07T01:20:29;4.35;;;2.40;;
62584;SDS011;48643;51.670;5.808;2023-05-07T01:22:56;3.60;;;2.50;;
62584;SDS011;48643;51.670;5.808;2023-05-07T01:25:24;5.43;;;2.60;;
62584;SDS011;48643;51.670;5.808;2023-05-07T01:27:54;3.90;;;2.50;;
62584;SDS011;48643;51.670;5.808;2023-05-07T01:30:25;4.15;;;2.13;;
62584;SDS011;48643;51.670;5.808;2023-05-07T01:32:56;3.35;;;2.30;;
62584;SDS011;48643;51.670;5.808;2023-05-07T01:35:32;3.75;;;2.40;;
62584;SDS011;48643;51.670;5.808;2023-05-07T01:38:02;4.10;;;2.80;;
62584;SDS011;48643;51.670;5.808;2023-05-07T01:40:30;4.13;;;2.70;;
62584;SDS011;48643;51.670;5.808;2023-05-07T01:42:57;6.45;;;2.70;;
62584;SDS011;48643;51.670;5.808;2023-05-07T01:45:24;3.55;;;2.60;;
62584;SDS011;48643;51.670;5.808;2023-05-07T01:47:51;4.25;;;2.47;;
62584;SDS011;48643;51.670;5.808;2023-05-07T01:50:19;5.40;;;2.70;;
62584;SDS011;48643;51.670;5.808;2023-05-07T01:52:47;4.47;;;2.60;;
62584;SDS011;48643;51.670;5.808;2023-05-07T01:55:16;3.78;;;2.58;;
62584;SDS011;48643;51.670;5.808;2023-05-07T01:57:43;3.90;;;2.70;;
62584;SDS011;48643;51.670;5.808;2023-05-07T02:00:10;3.67;;;2.60;;
62584;SDS011;48643;51.670;5.808;2023-05-07T02:02:41;5.03;;;2.60;;
62584;SDS011;48643;51.670;5.808;2023-05-07T02:05:17;4.80;;;2.47;;
62584;SDS011;48643;51.670;5.808;2023-05-07T02:07:49;4.30;;;2.70;;
62584;SDS011;48643;51.670;5.808;2023-05-07T02:10:16;3.90;;;2.70;;
62584;SDS011;48643;51.670;5.808;2023-05-07T02:12:43;4.03;;;2.60;;
62584;SDS011;48643;51.670;5.808;2023-05-07T02:15:10;5.57;;;2.80;;
62584;SDS011;48643;51.670;5.808;2023-05-07T02:20:27;5.20;;;2.67;;
62584;SDS011;48643;51.670;5.808;2023-05-07T02:22:53;4.25;;;2.70;;
62584;SDS011;48643;51.670;5.808;2023-05-07T02:25:20;4.65;;;2.75;;
62584;SDS011;48643;51.670;5.808;2023-05-07T02:27:47;4.00;;;2.70;;
62584;SDS011;48643;51.670;5.808;2023-05-07T02:30:15;3.88;;;2.70;;
62584;SDS011;48643;51.670;5.808;2023-05-07T02:32:42;5.60;;;2.67;;
62584;SDS011;48643;51.670;5.808;2023-05-07T02:35:09;4.20;;;2.97;;
62584;SDS011;48643;51.670;5.808;2023-05-07T02:37:36;3.72;;;2.58;;
62584;SDS011;48643;51.670;5.808;2023-05-07T02:40:04;3.92;;;2.80;;
62584;SDS011;48643;51.670;5.808;2023-05-07T02:42:31;3.75;;;2.60;;
62584;SDS011;48643;51.670;5.808;2023-05-07T02:44:58;5.30;;;2.75;;
62584;SDS011;48643;51.670;5.808;2023-05-07T02:47:25;6.72;;;2.80;;
62584;SDS011;48643;51.670;5.808;2023-05-07T02:49:56;4.20;;;2.78;;
62584;SDS011;48643;51.670;5.808;2023-05-07T02:52:23;5.28;;;2.70;;
62584;SDS011;48643;51.670;5.808;2023-05-07T02:54:50;4.20;;;2.90;;
62584;SDS011;48643;51.670;5.808;2023-05-07T02:57:16;3.58;;;2.78;;
62584;SDS011;48643;51.670;5.808;2023-05-07T02:59:44;3.72;;;2.67;;
62584;SDS011;48643;51.670;5.808;2023-05-07T03:02:12;4.13;;;2.80;;
62584;SDS011;48643;51.670;5.808;2023-05-07T03:04:39;3.65;;;2.80;;
62584;SDS011;48643;51.670;5.808;2023-05-07T03:07:07;3.90;;;2.70;;
62584;SDS011;48643;51.670;5.808;2023-05-07T03:09:34;4.07;;;2.80;;
62584;SDS011;48643;51.670;5.808;2023-05-07T03:12:01;3.50;;;2.75;;
62584;SDS011;48643;51.670;5.808;2023-05-07T03:14:28;4.43;;;2.80;;
62584;SDS011;48643;51.670;5.808;2023-05-07T03:16:54;4.35;;;2.80;;
62584;SDS011;48643;51.670;5.808;2023-05-07T03:19:21;5.03;;;3.00;;
62584;SDS011;48643;51.670;5.808;2023-05-07T03:21:48;3.47;;;2.72;;
62584;SDS011;48643;51.670;5.808;2023-05-07T03:24:15;3.97;;;2.88;;
62584;SDS011;48643;51.670;5.808;2023-05-07T03:26:42;5.00;;;3.10;;
62584;SDS011;48643;51.670;5.808;2023-05-07T03:29:09;5.07;;;3.20;;
62584;SDS011;48643;51.670;5.808;2023-05-07T03:31:36;4.00;;;2.75;;
62584;SDS011;48643;51.670;5.808;2023-05-07T03:34:03;4.60;;;3.20;;
62584;SDS011;48643;51.670;5.808;2023-05-07T03:36:30;3.70;;;2.90;;
62584;SDS011;48643;51.670;5.808;2023-05-07T03:38:57;4.60;;;3.08;;
62584;SDS011;48643;51.670;5.808;2023-05-07T03:41:32;5.47;;;3.00;;
62584;SDS011;48643;51.670;5.808;2023-05-07T03:43:59;5.18;;;3.30;;
62584;SDS011;48643;51.670;5.808;2023-05-07T03:46:26;4.82;;;3.33;;
62584;SDS011;48643;51.670;5.808;2023-05-07T03:48:54;7.10;;;3.30;;
62584;SDS011;48643;51.670;5.808;2023-05-07T03:51:21;4.40;;;3.30;;
62584;SDS011;48643;51.670;5.808;2023-05-07T03:53:48;5.63;;;3.17;;
62584;SDS011;48643;51.670;5.808;2023-05-07T03:56:16;5.50;;;3.40;;
62584;SDS011;48643;51.670;5.808;2023-05-07T03:58:45;5.03;;;3.08;;
62584;SDS011;48643;51.670;5.808;2023-05-07T04:01:12;3.55;;;2.97;;
62584;SDS011;48643;51.670;5.808;2023-05-07T04:03:39;4.18;;;2.83;;
62584;SDS011;48643;51.670;5.808;2023-05-07T04:06:06;4.07;;;2.95;;
62584;SDS011;48643;51.670;5.808;2023-05-07T04:08:34;3.50;;;2.90;;
62584;SDS011;48643;51.670;5.808;2023-05-07T04:11:02;4.28;;;3.28;;
62584;SDS011;48643;51.670;5.808;2023-05-07T04:13:31;6.32;;;3.00;;
62584;SDS011;48643;51.670;5.808;2023-05-07T04:16:03;4.75;;;3.28;;
62584;SDS011;48643;51.670;5.808;2023-05-07T04:18:34;4.07;;;3.10;;
62584;SDS011;48643;51.670;5.808;2023-05-07T04:21:01;3.92;;;3.08;;
62584;SDS011;48643;51.670;5.808;2023-05-07T04:23:28;4.10;;;3.00;;
62584;SDS011;48643;51.670;5.808;2023-05-07T04:25:58;4.97;;;3.10;;
62584;SDS011;48643;51.670;5.808;2023-05-07T04:28:31;4.95;;;2.88;;
62584;SDS011;48643;51.670;5.808;2023-05-07T04:30:58;4.30;;;2.90;;
62584;SDS011;48643;51.670;5.808;2023-05-07T04:33:26;6.55;;;3.15;;
62584;SDS011;48643;51.670;5.808;2023-05-07T04:35:55;4.10;;;3.10;;
62584;SDS011;48643;51.670;5.808;2023-05-07T04:38:22;4.32;;;3.08;;
62584;SDS011;48643;51.670;5.808;2023-05-07T04:40:51;4.03;;;3.20;;
62584;SDS011;48643;51.670;5.808;2023-05-07T04:43:22;3.97;;;2.97;;
62584;SDS011;48643;51.670;5.808;2023-05-07T04:45:50;4.53;;;3.08;;
62584;SDS011;48643;51.670;5.808;2023-05-07T04:50:48;4.60;;;3.15;;
62584;SDS011;48643;51.670;5.808;2023-05-07T04:53:17;4.05;;;3.05;;
62584;SDS011;48643;51.670;5.808;2023-05-07T04:55:44;4.47;;;3.22;;
62584;SDS011;48643;51.670;5.808;2023-05-07T04:58:11;4.72;;;2.95;;
62584;SDS011;48643;51.670;5.808;2023-05-07T05:00:40;3.50;;;2.95;;
62584;SDS011;48643;51.670;5.808;2023-05-07T05:03:07;5.05;;;3.10;;
62584;SDS011;48643;51.670;5.808;2023-05-07T05:05:36;4.32;;;2.95;;
62584;SDS011;48643;51.670;5.808;2023-05-07T05:08:03;5.18;;;3.00;;
62584;SDS011;48643;51.670;5.808;2023-05-07T05:10:30;5.03;;;2.83;;
62584;SDS011;48643;51.670;5.808;2023-05-07T05:12:57;5.30;;;3.00;;
62584;SDS011;48643;51.670;5.808;2023-05-07T05:15:25;4.60;;;3.05;;
62584;SDS011;48643;51.670;5.808;2023-05-07T05:17:52;5.95;;;3.17;;
62584;SDS011;48643;51.670;5.808;2023-05-07T05:20:19;4.85;;;3.05;;
62584;SDS011;48643;51.670;5.808;2023-05-07T05:22:47;4.35;;;2.90;;
62584;SDS011;48643;51.670;5.808;2023-05-07T05:25:14;4.80;;;2.85;;
62584;SDS011;48643;51.670;5.808;2023-05-07T05:27:41;4.20;;;3.00;;
62584;SDS011;48643;51.670;5.808;2023-05-07T05:30:08;4.07;;;2.80;;
62584;SDS011;48643;51.670;5.808;2023-05-07T05:32:37;3.92;;;2.70;;
62584;SDS011;48643;51.670;5.808;2023-05-07T05:35:05;5.38;;;3.28;;
62584;SDS011;48643;51.670;5.808;2023-05-07T05:37:32;4.70;;;2.92;;
62584;SDS011;48643;51.670;5.808;2023-05-07T05:42:29;4.50;;;3.03;;
62584;SDS011;48643;51.670;5.808;2023-05-07T05:44:56;4.50;;;2.90;;
62584;SDS011;48643;51.670;5.808;2023-05-07T05:47:23;3.67;;;2.50;;
62584;SDS011;48643;51.670;5.808;2023-05-07T05:49:53;3.38;;;2.78;;
62584;SDS011;48643;51.670;5.808;2023-05-07T05:52:20;4.72;;;2.90;;
62584;SDS011;48643;51.670;5.808;2023-05-07T05:54:49;3.63;;;2.83;;
62584;SDS011;48643;51.670;5.808;2023-05-07T05:57:17;4.20;;;2.85;;
62584;SDS011;48643;51.670;5.808;2023-05-07T05:59:44;6.57;;;2.80;;
62584;SDS011;48643;51.670;5.808;2023-05-07T06:02:12;5.07;;;2.85;;
62584;SDS011;48643;51.670;5.808;2023-05-07T06:04:40;4.07;;;2.70;;
62584;SDS011;48643;51.670;5.808;2023-05-07T06:07:07;6.68;;;2.70;;
62584;SDS011;48643;51.670;5.808;2023-05-07T06:09:34;4.60;;;2.83;;
62584;SDS011;48643;51.670;5.808;2023-05-07T06:12:00;5.00;;;2.67;;
62584;SDS011;48643;51.670;5.808;2023-05-07T06:14:29;4.00;;;2.80;;
62584;SDS011;48643;51.670;5.808;2023-05-07T06:16:56;5.22;;;3.03;;
62584;SDS011;48643;51.670;5.808;2023-05-07T06:19:25;5.72;;;2.67;;
62584;SDS011;48643;51.670;5.808;2023-05-07T06:21:53;3.97;;;2.65;;
62584;SDS011;48643;51.670;5.808;2023-05-07T06:26:50;4.20;;;2.60;;
62584;SDS011;48643;51.670;5.808;2023-05-07T06:29:16;3.15;;;2.40;;
62584;SDS011;48643;51.670;5.808;2023-05-07T06:31:44;4.10;;;2.50;;
62584;SDS011;48643;51.670;5.808;2023-05-07T06:34:10;4.03;;;2.60;;
62584;SDS011;48643;51.670;5.808;2023-05-07T06:36:40;5.13;;;2.40;;
62584;SDS011;48643;51.670;5.808;2023-05-07T06:39:16;4.60;;;2.70;;
62584;SDS011;48643;51.670;5.808;2023-05-07T06:41:43;3.97;;;2.60;;
62584;SDS011;48643;51.670;5.808;2023-05-07T06:44:20;3.20;;;2.40;;
62584;SDS011;48643;51.670;5.808;2023-05-07T06:46:57;3.88;;;2.50;;
62584;SDS011;48643;51.670;5.808;2023-05-07T06:49:24;12.02;;;8.65;;
62584;SDS011;48643;51.670;5.808;2023-05-07T06:51:52;12.40;;;9.27;;
62584;SDS011;48643;51.670;5.808;2023-05-07T06:54:19;13.70;;;10.13;;
62584;SDS011;48643;51.670;5.808;2023-05-07T06:56:46;16.15;;;11.18;;
62584;SDS011;48643;51.670;5.808;2023-05-07T06:59:13;16.83;;;10.40;;
62584;SDS011;48643;51.670;5.808;2023-05-07T07:01:41;16.92;;;9.75;;
62584;SDS011;48643;51.670;5.808;2023-05-07T07:04:09;14.55;;;9.85;;
62584;SDS011;48643;51.670;5.808;2023-05-07T07:06:39;13.23;;;10.23;;
62584;SDS011;48643;51.670;5.808;2023-05-07T07:09:09;15.38;;;11.35;;
62584;SDS011;48643;51.670;5.808;2023-05-07T07:11:36;16.48;;;10.50;;
62584;SDS011;48643;51.670;5.808;2023-05-07T07:14:04;13.38;;;9.95;;
62584;SDS011;48643;51.670;5.808;2023-05-07T07:16:35;14.60;;;11.32;;
62584;SDS011;48643;51.670;5.808;2023-05-07T07:19:02;13.07;;;9.68;;
62584;SDS011;48643;51.670;5.808;2023-05-07T07:21:29;15.20;;;10.13;;
62584;SDS011;48643;51.670;5.808;2023-05-07T07:23:57;16.15;;;11.38;;
62584;SDS011;48643;51.670;5.808;2023-05-07T07:26:24;17.55;;;10.95;;
62584;SDS011;48643;51.670;5.808;2023-05-07T07:28:51;14.43;;;9.95;;
62584;SDS011;48643;51.670;5.808;2023-05-07T07:33:49;14.43;;;9.05;;
62584;SDS011;48643;51.670;5.808;2023-05-07T07:36:19;15.45;;;9.48;;
62584;SDS011;48643;51.670;5.808;2023-05-07T07:38:48;16.45;;;10.10;;
62584;SDS011;48643;51.670;5.808;2023-05-07T07:41:16;20.02;;;10.70;;
62584;SDS011;48643;51.670;5.808;2023-05-07T07:43:43;13.75;;;9.90;;
62584;SDS011;48643;51.670;5.808;2023-05-07T07:46:10;15.30;;;9.90;;
62584;SDS011;48643;51.670;5.808;2023-05-07T07:48:37;15.07;;;10.07;;
62584;SDS011;48643;51.670;5.808;2023-05-07T07:51:04;16.33;;;8.07;;
62584;SDS011;48643;51.670;5.808;2023-05-07T07:53:31;14.80;;;9.90;;
62584;SDS011;48643;51.670;5.808;2023-05-07T07:55:58;15.65;;;8.88;;
62584;SDS011;48643;51.670;5.808;2023-05-07T07:58:29;11.85;;;8.13;;
62584;SDS011;48643;51.670;5.808;2023-05-07T08:00:57;16.08;;;8.60;;
62584;SDS011;48643;51.670;5.808;2023-05-07T08:03:24;12.38;;;7.13;;
62584;SDS011;48643;51.670;5.808;2023-05-07T08:05:56;13.90;;;6.95;;
62584;SDS011;48643;51.670;5.808;2023-05-07T08:08:24;9.18;;;6.10;;
62584;SDS011;48643;51.670;5.808;2023-05-07T08:10:52;10.93;;;6.30;;
62584;SDS011;48643;51.670;5.808;2023-05-07T08:13:26;9.43;;;5.75;;
62584;SDS011;48643;51.670;5.808;2023-05-07T08:15:53;8.10;;;5.45;;
62584;SDS011;48643;51.670;5.808;2023-05-07T08:18:21;11.73;;;5.22;;
62584;SDS011;48643;51.670;5.808;2023-05-07T08:20:50;11.07;;;5.22;;
62584;SDS011;48643;51.670;5.808;2023-05-07T08:23:21;9.18;;;5.25;;
62584;SDS011;48643;51.670;5.808;2023-05-07T08:25:49;11.53;;;4.60;;
62584;SDS011;48643;51.670;5.808;2023-05-07T08:28:18;7.05;;;4.43;;
62584;SDS011;48643;51.670;5.808;2023-05-07T08:30:46;8.52;;;4.25;;
62584;SDS011;48643;51.670;5.808;2023-05-07T08:33:13;6.13;;;3.90;;
62584;SDS011;48643;51.670;5.808;2023-05-07T08:35:40;8.23;;;4.22;;
62584;SDS011;48643;51.670;5.808;2023-05-07T08:38:09;6.80;;;3.90;;
62584;SDS011;48643;51.670;5.808;2023-05-07T08:40:37;6.50;;;3.90;;
62584;SDS011;48643;51.670;5.808;2023-05-07T08:43:09;7.25;;;3.70;;
62584;SDS011;48643;51.670;5.808;2023-05-07T08:45:39;5.53;;;3.38;;
62584;SDS011;48643;51.670;5.808;2023-05-07T08:48:14;5.13;;;3.60;;
62584;SDS011;48643;51.670;5.808;2023-05-07T08:50:45;5.60;;;3.30;;
62584;SDS011;48643;51.670;5.808;2023-05-07T08:53:13;5.05;;;3.22;;
62584;SDS011;48643;51.670;5.808;2023-05-07T08:55:40;14.85;;;7.60;;
62584;SDS011;48643;51.670;5.808;2023-05-07T08:58:07;15.80;;;8.80;;
62584;SDS011;48643;51.670;5.808;2023-05-07T09:00:37;12.20;;;8.77;;
62584;SDS011;48643;51.670;5.808;2023-05-07T09:03:06;9.88;;;7.50;;
62584;SDS011;48643;51.670;5.808;2023-05-07T09:05:35;11.85;;;7.72;;
62584;SDS011;48643;51.670;5.808;2023-05-07T09:10:34;12.00;;;8.60;;
62584;SDS011;48643;51.670;5.808;2023-05-07T09:13:02;14.73;;;8.27;;
62584;SDS011;48643;51.670;5.808;2023-05-07T09:15:30;13.05;;;8.65;;
62584;SDS011;48643;51.670;5.808;2023-05-07T09:18:00;16.10;;;8.13;;
62584;SDS011;48643;51.670;5.808;2023-05-07T09:20:32;12.55;;;8.77;;
62584;SDS011;48643;51.670;5.808;2023-05-07T09:23:00;14.50;;;9.60;;
62584;SDS011;48643;51.670;5.808;2023-05-07T09:25:29;18.02;;;8.95;;
62584;SDS011;48643;51.670;5.808;2023-05-07T09:28:02;12.25;;;8.85;;
62584;SDS011;48643;51.670;5.808;2023-05-07T09:30:31;13.30;;;8.50;;
62584;SDS011;48643;51.670;5.808;2023-05-07T09:33:00;13.73;;;8.63;;
62584;SDS011;48643;51.670;5.808;2023-05-07T09:35:30;11.40;;;8.50;;
62584;SDS011;48643;51.670;5.808;2023-05-07T09:38:02;16.85;;;8.60;;
62584;SDS011;48643;51.670;5.808;2023-05-07T09:40:33;13.48;;;8.77;;
62584;SDS011;48643;51.670;5.808;2023-05-07T09:43:10;11.60;;;8.32;;
62584;SDS011;48643;51.670;5.808;2023-05-07T09:45:43;15.57;;;8.23;;
62584;SDS011;48643;51.670;5.808;2023-05-07T09:48:11;11.82;;;8.32;;
62584;SDS011;48643;51.670;5.808;2023-05-07T09:50:41;14.93;;;7.18;;
62584;SDS011;48643;51.670;5.808;2023-05-07T09:53:17;14.18;;;5.70;;
62584;SDS011;48643;51.670;5.808;2023-05-07T09:55:45;12.60;;;5.82;;
62584;SDS011;48643;51.670;5.808;2023-05-07T09:58:13;21.35;;;5.28;;
62584;SDS011;48643;51.670;5.808;2023-05-07T10:00:43;11.77;;;4.65;;
62584;SDS011;48643;51.670;5.808;2023-05-07T10:03:13;13.68;;;4.70;;
62584;SDS011;48643;51.670;5.808;2023-05-07T10:05:51;10.07;;;4.60;;
62584;SDS011;48643;51.670;5.808;2023-05-07T10:08:19;8.30;;;4.13;;
62584;SDS011;48643;51.670;5.808;2023-05-07T10:10:49;7.03;;;4.50;;
62584;SDS011;48643;51.670;5.808;2023-05-07T10:13:21;9.05;;;4.18;;
62584;SDS011;48643;51.670;5.808;2023-05-07T10:15:51;10.38;;;4.35;;
62584;SDS011;48643;51.670;5.808;2023-05-07T10:18:19;6.10;;;3.85;;
62584;SDS011;48643;51.670;5.808;2023-05-07T10:20:51;7.22;;;3.70;;
62584;SDS011;48643;51.670;5.808;2023-05-07T10:23:22;6.38;;;3.60;;
62584;SDS011;48643;51.670;5.808;2023-05-07T10:25:53;8.02;;;3.58;;
62584;SDS011;48643;51.670;5.808;2023-05-07T10:28:27;8.50;;;4.00;;
62584;SDS011;48643;51.670;5.808;2023-05-07T10:33:42;8.18;;;3.30;;
62584;SDS011;48643;51.670;5.808;2023-05-07T10:36:12;6.68;;;3.50;;
62584;SDS011;48643;51.670;5.808;2023-05-07T10:38:39;8.45;;;3.30;;
62584;SDS011;48643;51.670;5.808;2023-05-07T10:41:07;4.97;;;3.28;;
62584;SDS011;48643;51.670;5.808;2023-05-07T10:43:41;6.90;;;3.35;;
62584;SDS011;48643;51.670;5.808;2023-05-07T10:46:16;7.10;;;3.50;;
62584;SDS011;48643;51.670;5.808;2023-05-07T10:51:32;7.18;;;3.88;;
62584;SDS011;48643;51.670;5.808;2023-05-07T10:54:18;7.28;;;3.55;;
62584;SDS011;48643;51.670;5.808;2023-05-07T10:56:54;5.90;;;3.28;;
62584;SDS011;48643;51.670;5.808;2023-05-07T10:59:32;5.10;;;3.28;;
62584;SDS011;48643;51.670;5.808;2023-05-07T11:02:12;5.70;;;3.30;;
62584;SDS011;48643;51.670;5.808;2023-05-07T11:13:41;4.50;;;2.90;;
62584;SDS011;48643;51.670;5.808;2023-05-07T11:18:46;6.32;;;3.10;;
62584;SDS011;48643;51.670;5.808;2023-05-07T11:21:33;5.22;;;3.10;;
62584;SDS011;48643;51.670;5.808;2023-05-07T11:24:20;7.78;;;3.40;;
62584;SDS011;48643;51.670;5.808;2023-05-07T11:26:53;13.35;;;4.70;;
62584;SDS011;48643;51.670;5.808;2023-05-07T11:29:21;13.73;;;4.70;;
62584;SDS011;48643;51.670;5.808;2023-05-07T11:31:54;11.90;;;5.05;;
62584;SDS011;48643;51.670;5.808;2023-05-07T11:34:25;8.48;;;4.20;;
62584;SDS011;48643;51.670;5.808;2023-05-07T11:36:55;11.55;;;4.53;;
62584;SDS011;48643;51.670;5.808;2023-05-07T11:39:34;20.65;;;4.78;;
62584;SDS011;48643;51.670;5.808;2023-05-07T11:42:02;11.82;;;5.15;;
62584;SDS011;48643;51.670;5.808;2023-05-07T11:44:40;17.05;;;7.10;;
62584;SDS011;48643;51.670;5.808;2023-05-07T11:47:07;17.92;;;8.00;;
62584;SDS011;48643;51.670;5.808;2023-05-07T11:49:34;12.23;;;6.55;;
62584;SDS011;48643;51.670;5.808;2023-05-07T11:52:01;18.10;;;7.85;;
62584;SDS011;48643;51.670;5.808;2023-05-07T11:54:35;15.57;;;7.30;;
62584;SDS011;48643;51.670;5.808;2023-05-07T11:57:03;12.50;;;6.13;;
62584;SDS011;48643;51.670;5.808;2023-05-07T11:59:30;11.15;;;6.15;;
62584;SDS011;48643;51.670;5.808;2023-05-07T12:02:04;14.52;;;6.10;;
62584;SDS011;48643;51.670;5.808;2023-05-07T12:04:31;13.00;;;5.75;;
62584;SDS011;48643;51.670;5.808;2023-05-07T12:06:57;10.98;;;6.07;;
62584;SDS011;48643;51.670;5.808;2023-05-07T12:09:24;13.77;;;5.53;;
62584;SDS011;48643;51.670;5.808;2023-05-07T12:11:52;10.85;;;5.93;;
62584;SDS011;48643;51.670;5.808;2023-05-07T12:14:19;14.93;;;5.43;;
62584;SDS011;48643;51.670;5.808;2023-05-07T12:16:46;8.98;;;4.60;;
62584;SDS011;48643;51.670;5.808;2023-05-07T12:19:12;10.65;;;5.00;;
62584;SDS011;48643;51.670;5.808;2023-05-07T12:21:41;9.38;;;4.50;;
62584;SDS011;48643;51.670;5.808;2023-05-07T12:24:08;11.15;;;5.20;;
62584;SDS011;48643;51.670;5.808;2023-05-07T12:26:38;11.40;;;5.35;;
62584;SDS011;48643;51.670;5.808;2023-05-07T12:29:07;12.95;;;5.40;;
62584;SDS011;48643;51.670;5.808;2023-05-07T12:31:34;12.18;;;5.00;;
62584;SDS011;48643;51.670;5.808;2023-05-07T12:34:01;10.00;;;5.00;;
62584;SDS011;48643;51.670;5.808;2023-05-07T12:36:36;11.75;;;4.53;;
62584;SDS011;48643;51.670;5.808;2023-05-07T12:39:05;16.40;;;4.75;;
62584;SDS011;48643;51.670;5.808;2023-05-07T12:41:35;24.13;;;5.00;;
62584;SDS011;48643;51.670;5.808;2023-05-07T12:44:17;11.68;;;4.00;;
62584;SDS011;48643;51.670;5.808;2023-05-07T12:46:46;12.95;;;4.70;;
62584;SDS011;48643;51.670;5.808;2023-05-07T12:49:13;13.00;;;4.30;;
62584;SDS011;48643;51.670;5.808;2023-05-07T12:51:40;11.00;;;4.50;;
62584;SDS011;48643;51.670;5.808;2023-05-07T12:54:06;8.32;;;4.53;;
62584;SDS011;48643;51.670;5.808;2023-05-07T12:56:35;8.30;;;4.45;;
62584;SDS011;48643;51.670;5.808;2023-05-07T12:59:02;7.40;;;4.20;;
62584;SDS011;48643;51.670;5.808;2023-05-07T13:01:30;11.57;;;3.95;;
62584;SDS011;48643;51.670;5.808;2023-05-07T13:04:00;7.03;;;3.83;;
62584;SDS011;48643;51.670;5.808;2023-05-07T13:06:29;9.18;;;3.45;;
62584;SDS011;48643;51.670;5.808;2023-05-07T13:08:56;8.55;;;3.65;;
62584;SDS011;48643;51.670;5.808;2023-05-07T13:11:23;6.18;;;3.55;;
62584;SDS011;48643;51.670;5.808;2023-05-07T13:13:50;8.30;;;3.63;;
62584;SDS011;48643;51.670;5.808;2023-05-07T13:16:16;10.55;;;3.85;;
62584;SDS011;48643;51.670;5.808;2023-05-07T13:18:47;6.70;;;3.40;;
62584;SDS011;48643;51.670;5.808;2023-05-07T13:21:14;6.88;;;3.28;;
62584;SDS011;48643;51.670;5.808;2023-05-07T13:23:41;7.90;;;3.30;;
62584;SDS011;48643;51.670;5.808;2023-05-07T13:26:07;10.27;;;3.40;;
62584;SDS011;48643;51.670;5.808;2023-05-07T13:28:51;11.52;;;3.67;;
62584;SDS011;48643;51.670;5.808;2023-05-07T13:31:21;11.35;;;3.50;;
62584;SDS011;48643;51.670;5.808;2023-05-07T13:33:48;6.13;;;3.20;;
62584;SDS011;48643;51.670;5.808;2023-05-07T13:36:15;7.90;;;3.30;;
62584;SDS011;48643;51.670;5.808;2023-05-07T13:38:42;7.05;;;2.80;;
62584;SDS011;48643;51.670;5.808;2023-05-07T13:41:08;4.75;;;2.80;;
62584;SDS011;48643;51.670;5.808;2023-05-07T13:43:35;7.30;;;2.90;;
62584;SDS011;48643;51.670;5.808;2023-05-07T13:46:02;7.60;;;2.75;;
62584;SDS011;48643;51.670;5.808;2023-05-07T13:48:29;6.63;;;2.90;;
62584;SDS011;48643;51.670;5.808;2023-05-07T13:50:55;5.28;;;2.80;;
62584;SDS011;48643;51.670;5.808;2023-05-07T13:53:22;5.43;;;2.67;;
62584;SDS011;48643;51.670;5.808;2023-05-07T13:55:49;7.32;;;2.67;;
62584;SDS011;48643;51.670;5.808;2023-05-07T13:58:16;7.22;;;2.60;;
62584;SDS011;48643;51.670;5.808;2023-05-07T14:00:43;9.10;;;2.67;;
62584;SDS011;48643;51.670;5.808;2023-05-07T14:03:10;8.63;;;2.53;;
62584;SDS011;48643;51.670;5.808;2023-05-07T14:05:37;4.28;;;2.42;;
62584;SDS011;48643;51.670;5.808;2023-05-07T14:08:03;5.15;;;2.42;;
62584;SDS011;48643;51.670;5.808;2023-05-07T14:10:31;4.78;;;2.30;;
62584;SDS011;48643;51.670;5.808;2023-05-07T14:13:00;7.53;;;2.20;;
62584;SDS011;48643;51.670;5.808;2023-05-07T14:15:27;3.38;;;2.17;;
62584;SDS011;48643;51.670;5.808;2023-05-07T14:17:54;3.15;;;1.83;;
62584;SDS011;48643;51.670;5.808;2023-05-07T14:20:21;14.23;;;2.30;;
62584;SDS011;48643;51.670;5.808;2023-05-07T14:22:48;12.63;;;2.35;;
62584;SDS011;48643;51.670;5.808;2023-05-07T14:25:14;3.28;;;1.90;;
62584;SDS011;48643;51.670;5.808;2023-05-07T14:27:47;6.32;;;1.77;;
62584;SDS011;48643;51.670;5.808;2023-05-07T14:30:14;9.40;;;2.10;;
62584;SDS011;48643;51.670;5.808;2023-05-07T14:32:41;2.47;;;1.73;;
62584;SDS011;48643;51.670;5.808;2023-05-07T14:35:08;3.75;;;1.80;;
62584;SDS011;48643;51.670;5.808;2023-05-07T14:37:36;2.85;;;1.88;;
62584;SDS011;48643;51.670;5.808;2023-05-07T14:40:03;5.80;;;1.70;;
62584;SDS011;48643;51.670;5.808;2023-05-07T14:42:30;3.97;;;1.88;;
62584;SDS011;48643;51.670;5.808;2023-05-07T14:44:57;4.70;;;1.67;;
62584;SDS011;48643;51.670;5.808;2023-05-07T14:47:24;6.30;;;1.80;;
62584;SDS011;48643;51.670;5.808;2023-05-07T14:49:51;7.72;;;1.90;;
62584;SDS011;48643;51.670;5.808;2023-05-07T14:52:19;5.93;;;1.87;;
62584;SDS011;48643;51.670;5.808;2023-05-07T14:54:46;4.22;;;1.90;;
62584;SDS011;48643;51.670;5.808;2023-05-07T14:57:13;6.82;;;1.92;;
62584;SDS011;48643;51.670;5.808;2023-05-07T14:59:42;4.80;;;1.77;;
62584;SDS011;48643;51.670;5.808;2023-05-07T15:02:12;7.65;;;2.05;;
62584;SDS011;48643;51.670;5.808;2023-05-07T15:04:39;4.05;;;1.70;;
62584;SDS011;48643;51.670;5.808;2023-05-07T15:07:12;2.90;;;1.50;;
62584;SDS011;48643;51.670;5.808;2023-05-07T15:09:42;8.23;;;2.13;;
62584;SDS011;48643;51.670;5.808;2023-05-07T15:12:09;6.65;;;2.10;;
62584;SDS011;48643;51.670;5.808;2023-05-07T15:14:37;5.82;;;2.30;;
62584;SDS011;48643;51.670;5.808;2023-05-07T15:17:04;4.28;;;1.60;;
62584;SDS011;48643;51.670;5.808;2023-05-07T15:19:31;5.55;;;1.77;;
62584;SDS011;48643;51.670;5.808;2023-05-07T15:21:58;6.75;;;1.80;;
62584;SDS011;48643;51.670;5.808;2023-05-07T15:24:28;5.50;;;1.80;;